Terminal Aerodrome Forecast
Issued by NWS

Current Version | Previous Version | Text Only | Print | Product List | Glossary On
Versions: 1 2 3 4 5 6 7 8 9 10 11 12 13 14 15 16 17 18 19 20 21 22 23 24
000
FTUS45 KBOU 010304 AAB
TAFAPA
TAF AMD
KAPA 010304Z 0103/0124 24012KT P6SM BKN080 BKN150
     FM011500 27006KT P6SM SCT100 BKN150
     FM012300 VRB07KT P6SM VCTS SCT100CB BKN200=

USA.gov is the U.S. government's official web portal to all federal, state and local government web resources and services.